Mead, Colorado
Current Conditions -  °F | °C
As of 10:55 PM on Saturday 22 Nov 2014 (Local Time) from KLMO Reporting Station
Scattered Clouds Scattered Clouds  
Wind Chill: 44°   Ceiling: Unl
Heat Index: 47°   Visibility: 10mi
Dew Point: 27°   Wind: 8mph
Humidity: 45%   Direction: 340°NNW
Pressure: 29.57"   Gusts: NA
Location:  40.23°N, 105°W
Report Text: KLMO 230555Z AUTO 34007KT 10SM SCT085 09/M03 A2957 RMK AO2 T00861029
Loading
Personal Weather Stations






























Interactive Weather Map New forecast layout! Learn more

10-Day Weather Forecast

Advertisements
Track Severe Weather on mobile